Time;durP1;ratioP1;P1;durP2;ratioP2;P2;SDS_P1;SDS_P2;PMS_P1;PMS_P2;Temp;Humidity;BMP_temperature;BMP_pressure;BME280_temperature;BME280_humidity;BME280_pressure;Samples;Min_cycle;Max_cycle;Signal;HPM_P1;HPM_P2
2022/07/12 06:32:56;;;;;;;10.75;3.72;;;;;;;19.15;63.81;99971.77;1739541;80;21113;-43
2022/07/12 06:35:23;;;;;;;4.78;3.70;;;;;;;19.24;64.98;99977.14;1745490;82;21006;-37
2022/07/12 06:37:49;;;;;;;6.60;3.50;;;;;;;19.35;64.41;99966.49;1728269;80;21048;-48
2022/07/12 06:40:17;;;;;;;5.42;3.30;;;;;;;19.40;63.33;99970.29;1679026;83;21082;-48
2022/07/12 06:42:44;;;;;;;3.10;2.80;;;;;;;19.38;62.11;99973.02;1747943;81;21120;-38
2022/07/12 06:45:10;;;;;;;6.62;2.75;;;;;;;19.38;61.60;99973.48;1719124;82;21533;-38
2022/07/12 06:47:37;;;;;;;6.55;2.42;;;;;;;19.34;60.53;99974.52;1724480;81;21058;-38
2022/07/12 06:50:05;;;;;;;4.70;2.60;;;;;;;19.39;60.83;99972.08;1741232;82;21552;-38
2022/07/12 06:52:34;;;;;;;3.30;2.77;;;;;;;19.47;60.12;99975.73;1745706;82;21049;-48
2022/07/12 06:55:01;;;;;;;5.03;2.72;;;;;;;19.55;59.97;99972.78;1740494;82;20988;-48
2022/07/12 06:57:33;;;;;;;3.67;2.55;;;;;;;19.61;61.89;99974.74;1740418;82;21499;-46
2022/07/12 07:00:00;;;;;;;5.12;2.37;;;;;;;19.75;59.67;99983.91;1751251;81;21027;-38
2022/07/12 07:02:27;;;;;;;3.80;2.20;;;;;;;19.79;58.60;99976.22;1676405;85;21038;-48
2022/07/12 07:04:54;;;;;;;3.55;2.85;;;;;;;19.81;58.21;99976.53;1702934;83;21002;-48
2022/07/12 07:07:21;;;;;;;6.47;2.50;;;;;;;19.83;57.41;99985.75;1700480;83;21124;-39
2022/07/12 07:09:48;;;;;;;8.00;2.35;;;;;;;19.82;57.05;99991.52;1710862;83;21006;-38
2022/07/12 07:12:15;;;;;;;2.67;2.35;;;;;;;19.88;57.85;99976.66;1703952;84;21030;-48
2022/07/12 07:14:41;;;;;;;4.95;2.45;;;;;;;20.01;58.22;99985.45;1708128;83;21026;-39
2022/07/12 07:17:09;;;;;;;2.70;2.35;;;;;;;20.09;57.07;99992.60;1731551;83;21538;-39
2022/07/12 07:19:39;;;;;;;3.27;2.45;;;;;;;20.12;57.88;99992.45;1670292;85;21138;-38
2022/07/12 07:22:05;;;;;;;4.97;2.50;;;;;;;20.15;58.10;99991.86;1679945;85;21105;-38
2022/07/12 07:24:33;;;;;;;2.20;2.00;;;;;;;20.19;56.40;99992.60;1741126;81;21063;-38
2022/07/12 07:26:59;;;;;;;11.95;2.60;;;;;;;20.23;56.27;99990.66;1740664;82;21520;-47
2022/07/12 07:32:11;;;;;;;4.30;3.15;;;;;;;20.18;54.84;99985.57;1737901;82;21039;-47
2022/07/12 07:34:38;;;;;;;4.87;2.35;;;;;;;20.10;55.71;100015.56;1761895;81;21159;-48
2022/07/12 07:37:05;;;;;;;4.62;1.90;;;;;;;20.06;55.08;100005.56;1760748;81;21058;-48
2022/07/12 07:39:32;;;;;;;2.92;1.87;;;;;;;20.13;54.48;99989.75;1685154;84;21577;-38
2022/07/12 07:41:59;;;;;;;2.67;1.92;;;;;;;20.26;54.43;99993.19;1696091;84;21066;-48
2022/07/12 07:44:26;;;;;;;5.90;2.08;;;;;;;20.47;55.60;99996.25;1692544;84;21087;-48
2022/07/12 07:46:53;;;;;;;5.00;2.10;;;;;;;20.65;55.67;99986.57;1743137;82;21072;-38
2022/07/12 07:49:20;;;;;;;2.52;2.00;;;;;;;20.84;54.60;99997.20;1749030;81;21145;-48
2022/07/12 07:51:46;;;;;;;2.27;2.08;;;;;;;20.94;52.73;99982.08;1745844;82;21578;-39
2022/07/12 07:54:13;;;;;;;2.02;1.75;;;;;;;20.91;54.15;99998.63;1745540;82;21066;-39
2022/07/12 07:56:39;;;;;;;4.83;2.05;;;;;;;20.88;53.77;99996.99;1746082;82;21109;-48
2022/07/12 07:59:07;;;;;;;6.47;2.25;;;;;;;20.91;52.47;99999.95;1745737;82;21055;-38
2022/07/12 08:01:52;;;;;;;5.62;2.33;;;;;;;20.91;51.55;99996.83;1745577;82;21082;-47
2022/07/12 08:04:17;;;;;;;3.60;2.25;;;;;;;20.99;51.40;100023.08;1745130;82;21113;-49
2022/07/12 08:06:45;;;;;;;8.80;1.60;;;;;;;21.03;50.88;100001.17;1746295;82;21570;-48
2022/07/12 08:09:13;;;;;;;5.83;1.90;;;;;;;21.07;52.06;100002.77;1745805;82;21057;-38
2022/07/12 08:11:40;;;;;;;4.67;1.67;;;;;;;21.12;51.49;100020.69;1749631;81;21426;-37
2022/07/12 08:14:07;;;;;;;15.13;2.25;;;;;;;21.10;49.48;100031.38;1738242;81;21037;-39
2022/07/12 08:16:34;;;;;;;5.35;1.72;;;;;;;20.97;50.81;100006.31;1656285;86;21626;-50
2022/07/12 08:19:01;;;;;;;2.50;2.00;;;;;;;20.95;51.37;100011.72;1734940;82;21055;-38
2022/07/12 08:21:28;;;;;;;2.37;1.10;;;;;;;21.02;52.31;100016.27;1745624;82;21046;-49
2022/07/12 08:23:55;;;;;;;1.27;1.07;;;;;;;21.16;49.20;100016.49;1745498;82;21063;-49
2022/07/12 08:26:22;;;;;;;1.98;1.30;;;;;;;21.19;48.38;100025.64;1745571;82;21084;-38
2022/07/12 08:28:49;;;;;;;3.08;1.10;;;;;;;21.13;49.63;100014.44;1745318;82;21568;-39
2022/07/12 08:31:16;;;;;;;1.50;1.00;;;;;;;21.14;48.01;100013.02;1745449;82;20998;-48
2022/07/12 08:33:44;;;;;;;0.82;0.82;;;;;;;21.26;47.44;100028.39;1746129;81;21050;-39
2022/07/12 08:36:10;;;;;;;2.20;1.20;;;;;;;21.33;47.89;100018.34;1715482;83;21519;-49
2022/07/12 08:38:38;;;;;;;1.50;1.10;;;;;;;21.37;47.93;100013.75;1709255;82;21297;-38
2022/07/12 08:41:05;;;;;;;1.75;1.20;;;;;;;21.30;48.42;100023.83;1662268;85;21095;-40
2022/07/12 08:43:35;;;;;;;1.17;0.80;;;;;;;21.29;47.59;100017.23;1703065;82;21058;-49
2022/07/12 08:46:13;;;;;;;2.37;0.80;;;;;;;21.42;44.96;100015.72;1713086;83;21026;-39
2022/07/12 08:48:42;;;;;;;2.67;0.90;;;;;;;21.48;43.14;100021.59;1705215;83;21060;-38
2022/07/12 08:51:11;;;;;;;2.35;1.15;;;;;;;21.49;44.26;100032.63;1699927;84;21575;-39
2022/07/12 08:53:38;;;;;;;3.47;1.00;;;;;;;21.58;45.51;100017.16;1701952;82;21087;-40
2022/07/12 08:56:06;;;;;;;4.58;1.62;;;;;;;21.79;45.48;100014.26;1740398;82;20980;-49
2022/07/12 08:58:33;;;;;;;1.32;0.90;;;;;;;21.93;44.86;100014.05;1740130;82;21423;-39
2022/07/12 09:01:01;;;;;;;1.12;1.02;;;;;;;21.99;45.09;100029.71;1740676;82;21039;-39
2022/07/12 09:03:28;;;;;;;3.25;0.98;;;;;;;22.00;43.69;100020.30;1747076;81;21489;-39
2022/07/12 09:05:57;;;;;;;2.62;0.90;;;;;;;22.05;43.72;100018.27;1700267;84;21731;-39
2022/07/12 09:08:29;;;;;;;1.27;1.10;;;;;;;22.18;44.91;100025.66;1700054;84;21070;-49
2022/07/12 09:11:00;;;;;;;1.70;1.30;;;;;;;22.31;43.87;100039.58;1766012;81;21538;-40
2022/07/12 09:13:52;;;;;;;3.12;1.12;;;;;;;22.36;42.36;100027.82;1751059;80;21057;-50
2022/07/12 09:16:25;;;;;;;2.42;0.78;;;;;;;22.41;43.68;100019.98;1734001;82;21538;-40
2022/07/12 09:18:52;;;;;;;2.80;1.07;;;;;;;22.50;42.06;100028.83;1729248;82;21128;-50
2022/07/12 09:21:27;;;;;;;0.75;0.75;;;;;;;22.53;41.50;100017.13;1733836;82;21033;-38
2022/07/12 09:23:57;;;;;;;5.37;1.10;;;;;;;22.44;41.75;100022.49;1732926;81;21815;-49
2022/07/12 09:26:30;;;;;;;1.17;0.85;;;;;;;22.43;41.70;100023.88;1743543;82;21057;-38
2022/07/12 09:28:58;;;;;;;;;;;;;;;22.50;41.66;100030.16;1695464;82;21049;-48
2022/07/12 09:31:30;;;;;;;2.67;0.82;;;;;;;22.49;41.42;100035.55;1667141;85;20166;-40
2022/07/12 09:37:00;;;;;;;2.58;1.30;;;;;;;22.25;41.76;100035.05;1709147;83;21019;-40
2022/07/12 09:39:26;;;;;;;1.67;1.25;;;;;;;22.26;42.25;100026.09;1682910;84;21081;-49
2022/07/12 09:41:55;;;;;;;1.07;0.70;;;;;;;22.29;42.20;100037.47;1697535;83;21592;-40
2022/07/12 09:44:21;;;;;;;0.90;0.82;;;;;;;22.25;41.83;100044.37;1705292;82;21078;-49
2022/07/12 09:46:48;;;;;;;4.62;0.98;;;;;;;22.12;41.88;100037.96;1734383;82;21093;-50
2022/07/12 09:49:15;;;;;;;1.45;0.95;;;;;;;22.03;41.72;100035.25;1746250;81;21816;-49
2022/07/12 09:51:42;;;;;;;4.12;0.80;;;;;;;22.09;41.06;100025.64;1673354;85;21018;-38
2022/07/12 09:54:09;;;;;;;1.30;1.00;;;;;;;22.28;41.53;100033.56;1736570;82;21133;-38
2022/07/12 09:56:36;;;;;;;0.93;0.75;;;;;;;22.45;40.80;100024.20;1751160;80;21030;-50
2022/07/12 09:59:04;;;;;;;0.90;0.90;;;;;;;22.51;39.86;100026.55;1725476;82;21061;-49
2022/07/12 10:01:32;;;;;;;0.80;0.70;;;;;;;22.60;40.12;100035.84;1721760;82;21049;-39
2022/07/12 10:03:59;;;;;;;1.07;0.70;;;;;;;22.68;39.16;100044.30;1758078;81;21006;-40
2022/07/12 10:06:28;;;;;;;1.30;1.07;;;;;;;22.67;39.22;100027.92;1764277;81;21010;-50
2022/07/12 10:08:57;;;;;;;0.88;0.88;;;;;;;22.58;40.97;100029.27;1744871;81;21096;-39
2022/07/12 10:11:24;;;;;;;1.25;0.88;;;;;;;22.66;40.51;100023.98;1745818;82;20997;-39
2022/07/12 10:13:51;;;;;;;0.80;0.72;;;;;;;22.79;39.66;100045.06;1758732;81;21530;-49
